map of YVP home
YVP - Airport
Location
City:  Kuujjuaq, Québec, Canada
Near (Alt.):Fort Chimo
Name:Kuujjuaq Airport
ICAO:CYVP
IATA:YVP

Details
Type:Airport (Airfield)
Use:Public/Civil
Latitude:58°05'42"N (58.095000)
Longitude:68°25'20"W (-68.422221)
Elevation:131 ft (40 m)
Variation:22.43°W (WMM2015 magnetic declination)
0.26° annual change
Runways:2
Longest:6000 ft (1829 m), paved

Time
Time Zone:UTC-5 (DST-4)
Local Time:

Weather
METAR:CYVP 201600Z 22011G16KT 15SM FEW017 BKN036 BKN070 BKN260 M15/M19 A2986 RMK SC2SC3AC1CI1 CI TR SLP119
TAF:CYVP 201138Z 2012/2024 23008KT P6SM SCT130
RMK NXT FCST BY 201800Z

Related Locations
Nearby:
Farthest:YWKS: 11835 mi / 19046 km
Wilkins Runway (Casey), Upper Peterson Glacier, AQ

Find:

   beyond  
but within

Other Information
Maps:
NOTAMs:
Links:
Sources:

  
  • flag of Canada
  • flag of Québec
  

Airport Diagram

Airport diagram for YVP

Airport diagram PDF

Sectional Chart

Flight Planning
at skyvector.com

Satellite Image

Google Maps Satellite view

 

Copyright © 2004-2018 Karl L. Swartz. All rights reserved.
The Great Circle Mapper name and logo are trademarks of the Great Circle Mapper.
All other trademarks mentioned herein belong to their respective owners.
Please see credits for attibutions and further copyright information.

  Follow gcmap on Facebook Follow gcmap on Twitter Follow gcmap on Google+ GCmap on LinkedIn

hCard Microformat

Geo Microformat